Time;durP1;ratioP1;P1;durP2;ratioP2;P2;SDS_P1;SDS_P2;PMS_P1;PMS_P2;Temp;Humidity;BMP_temperature;BMP_pressure;BME280_temperature;BME280_humidity;BME280_pressure;Samples;Min_cycle;Max_cycle;Signal;HPM_P1;HPM_P2
2021/12/22 00:00:08;;;;;;;7.07;3.80;;;16.20;38.20;;;;;;5092214;27;45258;-74
2021/12/22 00:02:36;;;;;;;8.13;4.28;;;16.20;38.10;;;;;;5075052;28;45306;-74
2021/12/22 00:05:03;;;;;;;5.70;3.88;;;16.20;38.40;;;;;;5068332;28;45287;-74
2021/12/22 00:07:30;;;;;;;6.20;3.45;;;16.20;38.10;;;;;;5071673;28;45354;-74
2021/12/22 00:09:58;;;;;;;7.65;4.30;;;16.10;38.10;;;;;;5080941;28;46424;-74
2021/12/22 00:12:25;;;;;;;5.72;4.05;;;16.10;38.00;;;;;;5068917;28;45507;-73
2021/12/22 00:14:52;;;;;;;6.65;4.15;;;16.10;38.10;;;;;;5071379;28;45441;-73
2021/12/22 00:17:18;;;;;;;6.18;3.67;;;16.10;38.10;;;;;;5071872;28;45405;-73
2021/12/22 00:19:45;;;;;;;6.00;3.30;;;16.10;38.10;;;;;;5068147;28;46962;-73
2021/12/22 00:22:12;;;;;;;5.50;3.58;;;16.10;38.10;;;;;;5068702;28;45328;-73
2021/12/22 00:24:40;;;;;;;8.57;4.05;;;16.10;38.10;;;;;;5069617;28;45354;-73
2021/12/22 00:27:08;;;;;;;7.93;4.15;;;16.10;38.10;;;;;;5069642;28;45489;-73
2021/12/22 00:29:35;;;;;;;6.38;3.70;;;16.10;38.00;;;;;;5070218;28;47228;-73
2021/12/22 00:32:11;;;;;;;6.35;3.40;;;16.10;38.00;;;;;;5081865;27;46011;-73
2021/12/22 00:34:46;;;;;;;5.45;3.45;;;16.10;37.80;;;;;;5069114;28;45165;-73
2021/12/22 00:37:15;;;;;;;5.63;3.58;;;16.10;37.90;;;;;;5079214;28;45350;-73
2021/12/22 00:39:43;;;;;;;8.95;4.30;;;16.10;38.10;;;;;;5073738;28;45218;-73
2021/12/22 00:42:13;;;;;;;6.47;3.72;;;16.10;38.00;;;;;;5067415;28;45322;-74
2021/12/22 00:44:40;;;;;;;5.78;3.80;;;16.10;37.90;;;;;;5068211;28;45366;-74
2021/12/22 00:47:07;;;;;;;6.82;4.28;;;16.10;37.80;;;;;;5067934;28;46157;-74
2021/12/22 00:49:34;;;;;;;5.55;3.58;;;16.10;37.80;;;;;;5075876;28;46613;-74
2021/12/22 00:52:02;;;;;;;6.05;3.45;;;16.10;37.80;;;;;;5066559;28;45161;-74
2021/12/22 00:54:29;;;;;;;6.10;4.10;;;16.10;37.90;;;;;;5074106;28;45226;-74
2021/12/22 00:57:02;;;;;;;5.93;3.70;;;16.10;37.80;;;;;;5082036;28;45542;-74
2021/12/22 00:59:31;;;;;;;6.38;3.80;;;16.10;37.70;;;;;;5082387;28;48332;-74
2021/12/22 01:01:58;;;;;;;6.60;3.72;;;16.00;37.70;;;;;;5070938;28;45232;-74
2021/12/22 01:04:25;;;;;;;6.18;3.58;;;16.00;37.70;;;;;;5079627;28;45166;-74
2021/12/22 01:06:52;;;;;;;5.80;3.53;;;16.00;37.70;;;;;;5066777;28;45098;-73
2021/12/22 01:09:19;;;;;;;6.38;3.35;;;16.00;37.70;;;;;;5067104;28;46387;-73
2021/12/22 01:11:46;;;;;;;4.57;3.00;;;16.00;37.60;;;;;;5074858;28;45363;-73
2021/12/22 01:14:14;;;;;;;5.03;3.13;;;16.00;37.70;;;;;;5087550;28;45260;-73
2021/12/22 01:16:46;;;;;;;4.75;3.20;;;16.10;39.70;;;;;;5083016;28;45390;-73
2021/12/22 01:19:17;;;;;;;6.50;3.33;;;16.10;39.20;;;;;;5085947;28;45489;-73
2021/12/22 01:21:48;;;;;;;5.35;3.28;;;16.10;38.60;;;;;;5066436;27;45227;-73
2021/12/22 01:24:21;;;;;;;5.03;3.40;;;16.10;38.30;;;;;;5070574;28;45138;-73
2021/12/22 01:26:53;;;;;;;6.50;3.40;;;16.10;38.10;;;;;;5067633;28;45372;-73
2021/12/22 01:29:20;;;;;;;6.13;3.15;;;16.10;38.00;;;;;;5067765;28;46529;-73
2021/12/22 01:31:48;;;;;;;4.70;2.80;;;16.10;37.90;;;;;;5065433;28;45435;-73
2021/12/22 01:34:15;;;;;;;5.13;3.00;;;16.00;37.70;;;;;;5067433;28;45379;-73
2021/12/22 01:36:42;;;;;;;5.63;2.90;;;16.00;37.70;;;;;;5074544;28;45312;-73
2021/12/22 01:39:09;;;;;;;6.47;3.40;;;16.00;37.70;;;;;;5076103;27;46296;-73
2021/12/22 01:41:36;;;;;;;4.88;3.15;;;16.00;37.70;;;;;;5069985;28;45408;-73
2021/12/22 01:44:04;;;;;;;5.70;3.22;;;16.00;37.60;;;;;;5067045;28;45303;-73
2021/12/22 01:49:38;;;;;;;5.13;3.20;;;16.00;37.50;;;;;;5021763;28;45921;-73
2021/12/22 01:52:07;;;;;;;5.28;3.03;;;16.00;37.40;;;;;;5066556;28;45343;-74
2021/12/22 01:54:41;;;;;;;4.53;2.83;;;16.00;37.40;;;;;;5066688;28;45173;-74
2021/12/22 01:57:11;;;;;;;3.97;2.72;;;16.00;37.20;;;;;;5066280;28;45280;-73
2021/12/22 01:59:39;;;;;;;3.85;2.67;;;16.10;37.40;;;;;;5066964;28;47311;-74
2021/12/22 02:02:08;;;;;;;5.35;2.85;;;16.10;37.40;;;;;;5078736;28;45301;-73
2021/12/22 02:04:38;;;;;;;4.55;2.90;;;16.10;37.30;;;;;;5081283;28;45241;-74
2021/12/22 02:07:06;;;;;;;6.00;2.83;;;16.10;37.00;;;;;;5069133;28;45269;-74
2021/12/22 02:09:52;;;;;;;4.45;2.95;;;16.10;37.30;;;;;;5085155;27;46230;-74
2021/12/22 02:12:19;;;;;;;4.57;2.70;;;16.00;37.20;;;;;;5067172;28;45164;-74
2021/12/22 02:14:46;;;;;;;3.95;2.30;;;16.00;37.20;;;;;;5078909;28;45181;-74
2021/12/22 02:17:13;;;;;;;4.32;2.70;;;16.00;37.10;;;;;;5078766;28;45426;-74
2021/12/22 02:19:43;;;;;;;3.65;2.53;;;16.00;37.10;;;;;;5069919;28;48298;-74
2021/12/22 02:22:13;;;;;;;4.10;2.83;;;16.00;37.10;;;;;;5087193;28;45200;-74
2021/12/22 02:24:40;;;;;;;5.22;2.72;;;16.00;37.20;;;;;;5071952;28;45166;-74
2021/12/22 02:27:13;;;;;;;4.88;2.67;;;16.00;37.00;;;;;;5082285;28;45412;-74
2021/12/22 02:29:41;;;;;;;4.75;2.90;;;16.00;37.10;;;;;;5070311;28;45666;-74
2021/12/22 02:32:15;;;;;;;5.03;2.97;;;16.00;37.00;;;;;;5074746;28;45357;-74
2021/12/22 02:34:46;;;;;;;5.40;2.55;;;16.00;37.00;;;;;;5074360;28;45647;-73
2021/12/22 02:37:18;;;;;;;4.78;2.80;;;16.00;36.80;;;;;;5075354;28;45488;-73
2021/12/22 02:39:47;;;;;;;4.10;2.70;;;16.00;37.00;;;;;;5076193;28;46459;-74
2021/12/22 02:42:14;;;;;;;4.05;2.67;;;16.00;38.20;;;;;;5069662;28;45209;-74
2021/12/22 02:44:41;;;;;;;4.88;2.80;;;16.00;37.00;;;;;;5069576;28;45337;-73
2021/12/22 02:47:19;;;;;;;3.88;2.58;;;16.00;36.90;;;;;;5068864;28;45281;-74
2021/12/22 02:49:48;;;;;;;5.38;3.13;;;16.00;36.90;;;;;;5083357;27;46440;-74
2021/12/22 02:52:15;;;;;;;4.35;2.35;;;16.00;36.90;;;;;;5075414;28;45795;-74
2021/12/22 02:54:48;;;;;;;4.55;2.55;;;16.00;36.90;;;;;;5068649;28;46602;-74
2021/12/22 02:57:29;;;;;;;5.55;2.58;;;16.00;36.90;;;;;;5068118;28;45224;-73
2021/12/22 03:00:25;;;;;;;7.15;3.13;;;16.00;36.90;;;;;;5077725;28;47719;-73
2021/12/22 03:03:03;;;;;;;4.18;2.60;;;16.00;36.80;;;;;;5069556;28;45252;-73
2021/12/22 03:05:33;;;;;;;5.40;2.78;;;16.00;36.90;;;;;;5071774;28;45363;-73
2021/12/22 03:08:00;;;;;;;4.75;2.38;;;16.00;37.00;;;;;;5068996;28;45447;-73
2021/12/22 03:10:26;;;;;;;4.38;2.60;;;16.00;37.00;;;;;;5069832;28;45483;-74
2021/12/22 03:13:01;;;;;;;3.88;2.50;;;16.00;37.00;;;;;;5068955;28;45309;-73
2021/12/22 03:15:27;;;;;;;3.88;2.67;;;16.00;37.00;;;;;;5072373;28;45347;-73
2021/12/22 03:17:54;;;;;;;4.95;2.63;;;16.00;36.70;;;;;;5082716;28;45257;-73
2021/12/22 03:20:21;;;;;;;4.20;2.50;;;16.00;38.90;;;;;;5074959;28;46259;-73
2021/12/22 03:22:50;;;;;;;3.45;2.30;;;16.00;38.30;;;;;;5069270;28;45256;-73
2021/12/22 03:25:20;;;;;;;5.07;2.60;;;16.00;37.80;;;;;;5068898;28;45255;-73
2021/12/22 03:27:49;;;;;;;3.50;2.40;;;16.00;37.40;;;;;;5068682;28;45210;-73
2021/12/22 03:30:21;;;;;;;4.43;2.45;;;16.00;37.20;;;;;;5082385;28;46612;-73
2021/12/22 03:32:48;;;;;;;3.05;2.22;;;16.00;37.10;;;;;;5068163;28;45549;-73
2021/12/22 03:35:18;;;;;;;3.42;2.33;;;16.00;37.00;;;;;;5072199;28;45267;-73
2021/12/22 03:37:45;;;;;;;4.25;2.50;;;16.00;37.00;;;;;;5072943;28;45320;-73
2021/12/22 03:40:13;;;;;;;3.35;2.42;;;16.00;37.00;;;;;;5087919;27;46314;-73
2021/12/22 03:42:40;;;;;;;5.03;2.75;;;16.00;37.00;;;;;;5068149;28;45195;-73
2021/12/22 03:45:08;;;;;;;2.85;2.03;;;15.90;36.90;;;;;;5072818;28;45237;-73
2021/12/22 03:47:35;;;;;;;4.47;2.47;;;15.90;36.90;;;;;;5073011;28;45542;-73
2021/12/22 03:50:02;;;;;;;3.40;2.53;;;15.90;36.90;;;;;;5068317;28;46722;-73
2021/12/22 03:52:29;;;;;;;4.93;2.85;;;15.90;36.80;;;;;;5069008;28;45589;-73
2021/12/22 03:54:58;;;;;;;4.07;2.60;;;15.90;36.60;;;;;;5074655;28;45266;-73
2021/12/22 03:57:26;;;;;;;3.65;2.50;;;16.00;36.70;;;;;;5068696;28;45308;-73
2021/12/22 03:59:53;;;;;;;3.08;2.50;;;15.90;36.40;;;;;;5071324;28;46308;-73
2021/12/22 04:02:21;;;;;;;3.70;2.28;;;16.00;36.70;;;;;;5075144;27;45260;-73
2021/12/22 04:04:49;;;;;;;4.38;2.33;;;16.00;36.70;;;;;;5085272;27;45261;-73
2021/12/22 04:07:17;;;;;;;4.85;2.63;;;16.00;36.60;;;;;;5076462;28;45239;-73
2021/12/22 04:09:43;;;;;;;4.35;2.55;;;16.00;36.50;;;;;;5076290;28;46604;-73
2021/12/22 04:12:11;;;;;;;4.57;2.60;;;16.00;36.40;;;;;;5075784;28;45124;-74
2021/12/22 04:14:40;;;;;;;5.43;2.13;;;16.00;36.50;;;;;;5077763;28;45173;-74
2021/12/22 04:17:07;;;;;;;3.05;2.28;;;16.00;36.40;;;;;;5067557;28;45363;-74
2021/12/22 04:19:34;;;;;;;3.78;2.58;;;16.00;36.40;;;;;;5081399;28;46769;-74
2021/12/22 04:22:01;;;;;;;4.03;2.45;;;15.90;36.30;;;;;;5068387;28;45256;-74
2021/12/22 04:24:28;;;;;;;5.15;2.60;;;16.00;36.40;;;;;;5075483;28;45317;-74
2021/12/22 04:26:55;;;;;;;4.22;2.40;;;16.00;36.50;;;;;;5085359;28;45215;-74
2021/12/22 04:29:22;;;;;;;6.00;2.58;;;16.00;36.60;;;;;;5080756;27;48544;-74
2021/12/22 04:31:50;;;;;;;5.20;2.55;;;16.00;36.40;;;;;;5074518;28;45118;-74
2021/12/22 04:34:17;;;;;;;5.47;2.53;;;16.00;36.40;;;;;;5067592;28;45193;-74
2021/12/22 04:36:44;;;;;;;3.67;2.30;;;16.00;36.40;;;;;;5073604;28;45477;-74
2021/12/22 04:39:12;;;;;;;3.92;2.60;;;16.00;36.20;;;;;;5077154;28;45276;-74
2021/12/22 04:41:39;;;;;;;4.28;2.47;;;16.00;36.20;;;;;;5066692;28;45368;-74
2021/12/22 04:44:06;;;;;;;3.95;2.40;;;16.00;36.40;;;;;;5067255;28;45253;-74
2021/12/22 04:46:34;;;;;;;3.92;2.53;;;16.00;36.20;;;;;;5068019;28;45601;-74
2021/12/22 04:49:04;;;;;;;4.18;2.38;;;16.00;36.40;;;;;;5070533;28;45228;-74
2021/12/22 04:51:32;;;;;;;4.88;2.75;;;16.00;36.10;;;;;;5066972;28;45356;-73
2021/12/22 04:54:05;;;;;;;5.65;2.35;;;16.00;36.20;;;;;;5069754;28;45312;-73
2021/12/22 04:56:32;;;;;;;4.70;2.55;;;16.00;36.20;;;;;;5078378;27;45320;-74
2021/12/22 04:58:59;;;;;;;3.90;2.53;;;16.00;36.20;;;;;;5083531;28;45634;-73
2021/12/22 05:01:26;;;;;;;3.72;2.58;;;15.90;36.20;;;;;;5077165;28;45153;-73
2021/12/22 05:03:56;;;;;;;3.47;2.17;;;16.00;36.20;;;;;;5066359;28;45469;-74
2021/12/22 05:06:24;;;;;;;5.22;2.75;;;16.00;36.20;;;;;;5067929;28;45405;-74
2021/12/22 05:08:52;;;;;;;4.50;2.50;;;15.90;36.20;;;;;;5069340;28;47204;-73
2021/12/22 05:11:19;;;;;;;4.78;2.55;;;15.90;36.10;;;;;;5082903;27;45367;-73
2021/12/22 05:13:47;;;;;;;3.30;2.40;;;15.90;36.00;;;;;;5068942;27;45268;-73
2021/12/22 05:16:17;;;;;;;4.90;2.53;;;15.90;35.90;;;;;;5297667;22;46210;-74
2021/12/22 05:18:57;;;;;;;4.43;2.47;;;15.90;36.00;;;;;;5086232;27;47276;-74
2021/12/22 05:21:26;;;;;;;4.38;2.50;;;16.00;36.00;;;;;;5086619;28;45314;-74
2021/12/22 05:23:54;;;;;;;4.13;2.40;;;15.90;37.80;;;;;;5086518;28;45209;-75
2021/12/22 05:26:22;;;;;;;3.33;2.35;;;16.00;38.50;;;;;;5083613;28;45485;-74
2021/12/22 05:28:49;;;;;;;4.53;2.53;;;16.00;36.90;;;;;;5083193;28;46715;-74
2021/12/22 05:31:15;;;;;;;3.17;2.00;;;16.00;36.70;;;;;;5075040;28;45362;-75
2021/12/22 05:33:42;;;;;;;2.95;2.10;;;16.00;36.40;;;;;;5086912;28;45133;-74
2021/12/22 05:36:10;;;;;;;6.00;2.67;;;16.00;36.40;;;;;;5086052;28;45314;-75
2021/12/22 05:38:38;;;;;;;3.35;2.40;;;16.00;36.40;;;;;;5082732;28;47846;-75
2021/12/22 05:41:05;;;;;;;6.35;2.50;;;16.00;36.10;;;;;;5082428;28;45167;-75
2021/12/22 05:43:32;;;;;;;4.45;2.28;;;16.00;36.10;;;;;;5075610;28;45167;-74
2021/12/22 05:46:00;;;;;;;3.40;2.28;;;16.00;35.90;;;;;;5070247;27;45256;-75
2021/12/22 05:48:27;;;;;;;4.78;2.80;;;16.00;35.90;;;;;;5086843;28;45319;-75
2021/12/22 05:50:57;;;;;;;2.75;2.08;;;16.00;35.90;;;;;;5085487;28;45504;-75
2021/12/22 05:53:24;;;;;;;3.55;2.20;;;16.00;35.90;;;;;;5084067;28;45191;-75
2021/12/22 05:55:53;;;;;;;3.78;2.63;;;16.00;36.10;;;;;;5079335;28;45205;-75
2021/12/22 05:58:19;;;;;;;3.60;2.40;;;15.90;36.20;;;;;;5079006;27;46852;-74
2021/12/22 06:00:46;;;;;;;4.38;2.70;;;15.90;36.20;;;;;;5082197;27;45371;-74
2021/12/22 06:03:13;;;;;;;4.75;2.45;;;15.90;36.10;;;;;;5078418;28;45242;-75
2021/12/22 06:05:41;;;;;;;5.85;2.38;;;15.90;36.30;;;;;;5070868;28;45474;-75
2021/12/22 06:08:09;;;;;;;4.85;2.45;;;16.00;37.10;;;;;;5079849;28;46432;-75
2021/12/22 06:10:37;;;;;;;4.93;2.42;;;16.00;37.70;;;;;;5087043;28;45676;-75
2021/12/22 06:13:06;;;;;;;3.38;2.13;;;16.00;38.20;;;;;;5084194;28;45263;-75
2021/12/22 06:15:33;;;;;;;3.65;2.10;;;16.00;37.50;;;;;;5083996;28;45284;-75
2021/12/22 06:18:01;;;;;;;3.63;2.40;;;16.00;37.10;;;;;;5080644;28;47429;-75
2021/12/22 06:20:29;;;;;;;3.90;2.28;;;16.00;36.90;;;;;;5077994;27;45261;-75
2021/12/22 06:22:56;;;;;;;4.30;2.13;;;15.90;36.30;;;;;;5082052;28;45222;-75
2021/12/22 06:25:23;;;;;;;3.08;1.95;;;15.90;37.40;;;;;;5086243;28;45339;-75
2021/12/22 06:27:50;;;;;;;4.28;2.30;;;15.90;38.10;;;;;;5088334;28;46246;-75
2021/12/22 06:30:20;;;;;;;4.15;2.40;;;15.90;38.50;;;;;;5080256;28;45303;-75
2021/12/22 06:32:47;;;;;;;3.42;1.95;;;15.90;38.80;;;;;;5082076;27;45605;-74
2021/12/22 06:35:14;;;;;;;3.90;2.05;;;15.90;38.00;;;;;;5086781;28;45273;-74
2021/12/22 06:37:40;;;;;;;4.25;2.13;;;15.90;37.70;;;;;;5079636;27;47402;-75
2021/12/22 06:40:08;;;;;;;4.05;2.33;;;15.90;37.40;;;;;;5081841;28;45296;-76
2021/12/22 06:42:35;;;;;;;3.92;2.10;;;16.00;37.40;;;;;;5082783;28;45345;-76
2021/12/22 06:45:01;;;;;;;3.22;2.10;;;16.00;37.90;;;;;;5079680;28;45268;-75
2021/12/22 06:47:30;;;;;;;3.53;2.10;;;16.00;38.20;;;;;;5083899;28;48337;-75
2021/12/22 06:49:56;;;;;;;3.65;2.40;;;16.00;38.40;;;;;;5088651;28;45261;-76
2021/12/22 06:52:23;;;;;;;4.15;2.42;;;16.10;38.40;;;;;;5087960;28;45240;-76
2021/12/22 06:54:51;;;;;;;3.47;2.33;;;16.10;37.60;;;;;;5089005;28;45425;-76
2021/12/22 06:57:20;;;;;;;3.72;2.25;;;16.10;37.10;;;;;;5078983;28;47412;-75
2021/12/22 06:59:47;;;;;;;4.32;2.35;;;16.10;37.00;;;;;;5079512;28;45426;-76
2021/12/22 07:02:15;;;;;;;3.00;2.05;;;16.10;37.00;;;;;;5079967;28;45416;-75
2021/12/22 07:04:43;;;;;;;3.33;2.25;;;16.00;37.60;;;;;;5078371;28;45623;-75
2021/12/22 07:07:10;;;;;;;3.72;2.30;;;16.10;38.20;;;;;;5080080;27;47945;-75
2021/12/22 07:09:37;;;;;;;2.70;2.15;;;16.10;38.50;;;;;;5081346;28;45612;-75
2021/12/22 07:12:05;;;;;;;2.83;1.67;;;16.10;38.60;;;;;;5082186;28;45333;-75
2021/12/22 07:14:32;;;;;;;3.70;2.08;;;16.10;38.70;;;;;;5080782;28;45719;-76
2021/12/22 07:16:59;;;;;;;3.20;2.22;;;16.00;38.10;;;;;;5080102;27;45231;-74
2021/12/22 07:19:26;;;;;;;2.85;2.20;;;16.00;38.80;;;;;;5081545;28;45237;-75
2021/12/22 07:21:55;;;;;;;2.78;2.03;;;16.00;37.40;;;;;;5080058;28;45167;-75
2021/12/22 07:24:21;;;;;;;3.97;2.20;;;16.00;37.10;;;;;;5081455;28;45471;-75
2021/12/22 07:26:48;;;;;;;3.90;2.50;;;16.00;36.70;;;;;;5084690;28;45260;-75
2021/12/22 07:29:15;;;;;;;3.88;2.40;;;16.00;36.60;;;;;;5080583;27;45302;-75
2021/12/22 07:31:42;;;;;;;6.07;2.08;;;16.00;36.50;;;;;;5078571;27;45228;-79
2021/12/22 07:34:15;;;;;;;5.38;2.25;;;16.10;40.90;;;;;;5077131;27;45205;-79
2021/12/22 07:36:47;;;;;;;2.85;1.83;;;16.20;40.30;;;;;;5082643;27;46865;-78
2021/12/22 07:39:15;;;;;;;3.78;1.75;;;16.30;41.10;;;;;;5080096;28;45222;-78
2021/12/22 07:41:42;;;;;;;5.82;2.17;;;16.30;41.00;;;;;;5081496;28;45257;-77
2021/12/22 07:44:08;;;;;;;4.55;1.85;;;16.30;40.60;;;;;;5089507;28;45118;-78
2021/12/22 07:46:35;;;;;;;3.30;2.00;;;16.30;40.30;;;;;;5069668;28;47430;-77
2021/12/22 07:49:02;;;;;;;3.80;1.90;;;16.30;40.60;;;;;;5082228;28;45276;-77
2021/12/22 07:51:29;;;;;;;3.22;2.03;;;16.40;40.30;;;;;;5083396;27;45328;-78
2021/12/22 07:53:56;;;;;;;3.13;2.00;;;16.40;41.60;;;;;;5087408;28;45392;-78
2021/12/22 07:56:24;;;;;;;4.20;2.30;;;16.40;41.00;;;;;;5085928;28;46621;-78
2021/12/22 07:58:53;;;;;;;3.30;2.00;;;16.40;40.90;;;;;;5070315;28;45548;-77
2021/12/22 08:01:21;;;;;;;3.67;1.90;;;16.40;41.40;;;;;;5082459;28;45332;-77
2021/12/22 08:03:47;;;;;;;2.67;1.80;;;16.40;41.40;;;;;;5081093;28;45097;-78
2021/12/22 08:06:15;;;;;;;3.38;1.95;;;16.40;41.80;;;;;;5088415;28;46297;-77
2021/12/22 08:08:42;;;;;;;4.00;2.55;;;16.40;40.70;;;;;;5088528;28;45390;-78
2021/12/22 08:11:09;;;;;;;5.03;1.85;;;16.40;42.30;;;;;;5073552;28;45698;-78
2021/12/22 08:13:37;;;;;;;5.72;1.73;;;16.40;43.10;;;;;;5082966;28;45430;-78
2021/12/22 08:16:05;;;;;;;3.70;1.90;;;16.40;43.10;;;;;;5081374;27;46209;-78
2021/12/22 08:18:32;;;;;;;3.10;2.10;;;16.40;43.00;;;;;;5084236;27;45346;-79
2021/12/22 08:20:59;;;;;;;2.90;1.80;;;16.40;43.20;;;;;;5077257;27;45217;-78
2021/12/22 08:23:25;;;;;;;5.57;1.98;;;16.40;43.00;;;;;;5078041;27;45534;-78
2021/12/22 08:25:52;;;;;;;3.50;2.08;;;16.40;42.50;;;;;;5077181;28;46266;-78
2021/12/22 08:28:19;;;;;;;3.17;1.80;;;16.40;42.70;;;;;;5082111;27;45248;-78
2021/12/22 08:30:47;;;;;;;3.65;1.75;;;16.40;41.80;;;;;;5082492;28;45338;-78
2021/12/22 08:33:20;;;;;;;2.80;1.80;;;16.40;42.60;;;;;;5078018;27;45394;-78
2021/12/22 08:41:16;;;;;;;3.55;1.75;;;16.40;42.20;;;;;;5075300;28;45325;-78
2021/12/22 08:43:42;;;;;;;3.42;1.80;;;16.30;42.10;;;;;;5085711;28;45488;-78
2021/12/22 08:46:11;;;;;;;2.88;1.95;;;16.30;41.50;;;;;;5083289;28;45499;-78
2021/12/22 08:48:38;;;;;;;3.10;1.80;;;16.40;40.50;;;;;;5071912;28;45694;-78
2021/12/22 08:51:04;;;;;;;3.58;2.20;;;16.30;41.40;;;;;;5081680;28;45284;-78
2021/12/22 08:53:31;;;;;;;2.95;1.83;;;16.40;41.20;;;;;;5081519;28;45361;-78
2021/12/22 08:55:58;;;;;;;3.25;1.92;;;16.30;40.90;;;;;;5087629;28;45594;-78
2021/12/22 08:58:25;;;;;;;3.33;2.08;;;16.40;41.10;;;;;;5082547;28;45271;-79
2021/12/22 09:00:52;;;;;;;3.35;2.03;;;16.40;41.50;;;;;;5083124;28;45188;-78
2021/12/22 09:03:20;;;;;;;4.75;2.22;;;16.30;40.90;;;;;;5083149;27;45477;-78
2021/12/22 09:05:47;;;;;;;3.33;2.25;;;16.40;40.70;;;;;;5073364;27;45335;-78
2021/12/22 09:08:14;;;;;;;4.10;2.15;;;16.40;41.00;;;;;;5083272;28;45295;-78
2021/12/22 09:10:41;;;;;;;3.53;2.20;;;16.40;40.30;;;;;;5084647;28;45357;-78
2021/12/22 09:13:07;;;;;;;3.05;1.92;;;16.40;40.60;;;;;;5085280;28;45129;-78
2021/12/22 09:15:35;;;;;;;3.92;2.40;;;16.30;40.20;;;;;;5086857;28;46264;-78
2021/12/22 09:18:02;;;;;;;4.72;2.50;;;16.40;39.60;;;;;;5069942;28;45252;-76
2021/12/22 09:20:30;;;;;;;5.22;2.28;;;16.40;40.00;;;;;;5070503;28;45316;-77
2021/12/22 09:22:57;;;;;;;3.00;2.13;;;16.40;39.90;;;;;;5080930;27;45348;-77
2021/12/22 09:25:24;;;;;;;5.38;2.20;;;16.40;40.80;;;;;;5075469;28;46219;-77
2021/12/22 09:27:51;;;;;;;3.67;2.20;;;16.40;40.60;;;;;;5079922;28;45245;-77
2021/12/22 09:30:17;;;;;;;4.75;2.15;;;16.40;40.30;;;;;;5085145;28;45197;-77
2021/12/22 09:32:44;;;;;;;3.15;2.08;;;16.40;40.60;;;;;;5084931;28;45469;-77
2021/12/22 09:35:11;;;;;;;2.67;2.10;;;16.40;40.60;;;;;;5075599;28;45883;-77
2021/12/22 09:37:39;;;;;;;5.43;2.47;;;16.40;39.70;;;;;;5075337;28;45840;-77
2021/12/22 09:40:08;;;;;;;3.60;2.40;;;16.40;40.20;;;;;;5086954;28;45183;-76
2021/12/22 09:42:34;;;;;;;3.47;2.20;;;16.40;39.60;;;;;;5080319;28;45253;-76
2021/12/22 09:45:02;;;;;;;3.22;2.35;;;16.50;39.50;;;;;;5074777;28;47179;-77
2021/12/22 09:47:36;;;;;;;4.13;2.47;;;16.50;39.40;;;;;;5079683;28;46072;-77
2021/12/22 09:50:09;;;;;;;3.83;2.17;;;16.50;39.30;;;;;;5072020;28;45195;-77
2021/12/22 09:52:37;;;;;;;3.30;2.40;;;16.50;39.40;;;;;;5072503;28;45239;-77
2021/12/22 09:55:08;;;;;;;3.05;2.13;;;16.40;40.10;;;;;;5087030;28;46968;-77
2021/12/22 09:57:36;;;;;;;3.10;1.98;;;16.40;40.20;;;;;;5083122;28;45535;-77
2021/12/22 10:00:05;;;;;;;3.92;1.95;;;16.40;41.70;;;;;;5073539;28;45245;-76
2021/12/22 10:02:32;;;;;;;3.95;2.47;;;16.40;41.80;;;;;;5081309;28;45464;-76
2021/12/22 10:05:01;;;;;;;4.53;2.55;;;16.40;42.00;;;;;;5068990;28;45218;-76
2021/12/22 10:07:30;;;;;;;3.13;2.03;;;16.40;42.20;;;;;;5078947;28;45447;-76
2021/12/22 10:10:10;;;;;;;2.65;1.95;;;16.30;42.50;;;;;;5079486;28;45286;-77
2021/12/22 10:12:37;;;;;;;3.17;1.90;;;16.30;41.50;;;;;;5081424;27;45451;-76
2021/12/22 10:15:06;;;;;;;3.00;1.80;;;16.30;41.90;;;;;;5085853;28;47397;-76
2021/12/22 10:17:36;;;;;;;3.42;2.10;;;16.30;42.00;;;;;;5086897;28;45823;-76
2021/12/22 10:20:08;;;;;;;2.67;1.98;;;16.30;41.10;;;;;;5068124;28;45349;-76
2021/12/22 10:22:38;;;;;;;4.20;2.35;;;16.30;41.70;;;;;;5081443;28;45317;-77
2021/12/22 10:25:13;;;;;;;3.92;2.10;;;16.40;41.20;;;;;;5086024;28;45995;-76
2021/12/22 10:27:42;;;;;;;3.25;2.35;;;16.40;41.70;;;;;;5087603;28;45889;-76
2021/12/22 10:30:22;;;;;;;3.33;1.98;;;16.30;42.00;;;;;;5087305;28;45301;-76
2021/12/22 10:32:49;;;;;;;4.28;2.30;;;16.40;41.80;;;;;;5083743;28;45582;-76
2021/12/22 10:35:16;;;;;;;2.97;2.13;;;16.30;41.20;;;;;;5078945;28;47398;-76
2021/12/22 10:37:44;;;;;;;4.88;2.40;;;16.30;41.00;;;;;;5072299;28;45176;-76
2021/12/22 10:40:29;;;;;;;4.03;2.22;;;16.30;40.60;;;;;;5087394;28;45394;-76
2021/12/22 10:42:57;;;;;;;4.70;2.20;;;16.30;43.20;;;;;;5089638;28;45400;-76
2021/12/22 10:45:26;;;;;;;3.70;1.77;;;16.40;42.90;;;;;;5090872;27;47149;-75
2021/12/22 10:50:39;;;;;;;4.32;1.83;;;16.40;42.20;;;;;;5078047;28;45778;-76
2021/12/22 10:53:08;;;;;;;5.03;2.25;;;16.30;42.20;;;;;;5071321;28;45168;-76
2021/12/22 10:55:42;;;;;;;3.08;2.00;;;16.30;42.20;;;;;;5087827;28;45331;-76
2021/12/22 10:58:19;;;;;;;3.65;2.40;;;16.30;42.20;;;;;;5088418;28;45187;-76
2021/12/22 11:01:01;;;;;;;3.10;1.95;;;16.30;42.30;;;;;;5081309;28;45338;-76
2021/12/22 11:03:37;;;;;;;4.80;2.10;;;16.30;42.60;;;;;;5080993;28;45197;-76
2021/12/22 11:06:12;;;;;;;4.97;2.20;;;16.30;42.60;;;;;;5087765;28;48156;-76
2021/12/22 11:08:39;;;;;;;4.10;2.22;;;16.30;42.40;;;;;;5079203;27;45230;-76
2021/12/22 11:11:14;;;;;;;4.47;1.90;;;16.30;42.00;;;;;;5082343;27;45174;-77
2021/12/22 11:13:41;;;;;;;4.60;2.60;;;16.30;43.20;;;;;;5088479;28;45224;-76
2021/12/22 11:16:13;;;;;;;4.18;2.60;;;16.30;41.90;;;;;;5077377;28;45278;-76
2021/12/22 11:18:40;;;;;;;4.68;2.70;;;16.30;41.70;;;;;;5078459;28;45270;-76
2021/12/22 11:21:13;;;;;;;6.45;2.42;;;16.30;41.30;;;;;;5081036;28;45287;-76
2021/12/22 11:23:40;;;;;;;3.97;2.53;;;16.30;41.50;;;;;;5082579;28;45406;-75
2021/12/22 11:26:08;;;;;;;4.65;2.85;;;16.30;41.00;;;;;;5080125;28;47871;-76
2021/12/22 11:28:36;;;;;;;4.90;2.90;;;16.20;40.10;;;;;;5084118;27;45331;-76
2021/12/22 11:31:05;;;;;;;5.45;3.00;;;16.20;40.10;;;;;;5073510;28;45244;-76
2021/12/22 11:33:33;;;;;;;4.85;2.88;;;16.20;40.00;;;;;;5077220;27;45347;-76
2021/12/22 11:36:01;;;;;;;3.30;2.50;;;16.20;40.10;;;;;;5081218;27;45341;-75
2021/12/22 11:38:30;;;;;;;4.10;2.45;;;16.20;40.00;;;;;;5081827;28;45514;-75
2021/12/22 11:41:09;;;;;;;3.60;2.70;;;16.20;40.30;;;;;;5084907;28;45322;-76
2021/12/22 11:43:40;;;;;;;4.78;2.88;;;16.30;40.30;;;;;;5080741;28;45652;-76
2021/12/22 11:46:07;;;;;;;4.05;2.88;;;16.30;40.10;;;;;;5074814;28;45482;-76
2021/12/22 11:48:35;;;;;;;5.22;2.72;;;16.40;40.00;;;;;;5079287;28;46559;-76
2021/12/22 11:51:03;;;;;;;5.00;2.97;;;16.40;39.60;;;;;;5080446;27;45185;-76
2021/12/22 11:53:51;;;;;;;3.97;2.72;;;16.40;39.60;;;;;;5079698;28;45391;-76
2021/12/22 11:56:41;;;;;;;3.92;2.58;;;16.40;39.50;;;;;;5085077;28;47955;-76
2021/12/22 11:59:30;;;;;;;4.18;3.05;;;16.40;39.50;;;;;;5076835;28;45209;-75
2021/12/22 12:02:17;;;;;;;4.38;2.60;;;16.30;39.30;;;;;;5083282;28;45268;-75
2021/12/22 12:04:44;;;;;;;3.17;2.47;;;16.40;39.40;;;;;;5074288;28;45212;-75
2021/12/22 12:07:11;;;;;;;3.10;2.50;;;16.30;39.40;;;;;;5070568;28;47471;-76
2021/12/22 12:09:46;;;;;;;3.92;2.70;;;16.30;39.60;;;;;;5068112;28;45332;-76
2021/12/22 12:12:42;;;;;;;4.93;2.92;;;16.30;39.60;;;;;;5082610;28;45294;-76
2021/12/22 12:15:23;;;;;;;4.50;2.60;;;16.30;39.70;;;;;;5082765;27;45268;-76
2021/12/22 12:23:27;;;;;;;3.38;2.50;;;16.30;39.50;;;;;;5073902;28;46667;-76
2021/12/22 12:25:53;;;;;;;3.05;2.33;;;16.30;39.30;;;;;;5087185;27;45417;-76
2021/12/22 12:28:21;;;;;;;4.85;2.90;;;16.30;39.40;;;;;;5084582;28;45290;-76
2021/12/22 12:30:52;;;;;;;2.90;2.30;;;16.30;39.30;;;;;;5087882;28;45396;-76
2021/12/22 12:33:24;;;;;;;4.40;2.55;;;16.30;39.20;;;;;;5074675;28;45554;-76
2021/12/22 12:35:56;;;;;;;3.88;2.45;;;16.30;39.40;;;;;;5086677;28;45547;-75
2021/12/22 12:38:27;;;;;;;4.85;2.95;;;16.30;39.20;;;;;;5069377;28;46702;-75
2021/12/22 12:41:14;;;;;;;4.25;2.70;;;16.30;39.40;;;;;;5082204;28;45340;-75
2021/12/22 12:43:56;;;;;;;3.10;2.47;;;16.30;39.30;;;;;;5087192;28;45428;-75
2021/12/22 12:46:37;;;;;;;3.83;2.30;;;16.30;39.30;;;;;;5085690;27;45273;-75
2021/12/22 12:49:44;;;;;;;3.47;2.47;;;16.30;39.40;;;;;;5083306;27;45552;-76
2021/12/22 12:52:21;;;;;;;3.85;2.58;;;16.30;39.40;;;;;;5081857;27;45220;-75
2021/12/22 12:54:49;;;;;;;3.38;2.50;;;16.20;39.30;;;;;;5068641;27;45185;-75
2021/12/22 12:57:33;;;;;;;5.25;2.85;;;16.30;40.00;;;;;;5080475;27;45257;-75
2021/12/22 13:00:18;;;;;;;4.10;2.65;;;16.30;39.70;;;;;;5073591;28;45240;-75
2021/12/22 13:02:46;;;;;;;2.80;2.08;;;16.30;39.40;;;;;;5074829;27;45242;-75
2021/12/22 13:05:15;;;;;;;2.85;2.45;;;16.30;39.60;;;;;;5072672;27;45224;-75
2021/12/22 13:07:43;;;;;;;4.03;2.70;;;16.30;39.30;;;;;;5076090;27;45126;-75
2021/12/22 13:10:15;;;;;;;5.55;2.60;;;16.30;39.20;;;;;;5080136;28;48705;-75
2021/12/22 13:13:00;;;;;;;3.42;2.33;;;16.30;39.10;;;;;;5081523;28;45679;-75
2021/12/22 13:15:46;;;;;;;3.80;2.28;;;16.30;39.10;;;;;;5081130;28;45149;-75